Yunta, Australia
Current Conditions -  °F | °C
As of 6:00 AM on Friday 19 Dec 2014 (Local Time) from YBHI Reporting Station
Clear Clear  
Wind Chill: 59°   Ceiling: Unl
Heat Index: 59°   Visibility: 6mi
Dew Point: 41°   Wind: 16mph
Humidity: 51%   Direction: 180°S
Pressure: 30.03"   Gusts: NA
Location:  32.58°S, 139.56°E
Report Text: YBHI 182000Z AUTO 18014KT 9999 // NCD 15/05 Q1017
Loading
Personal Weather Stations






























Interactive Weather Map New forecast layout! Learn more

10-Day Weather Forecast

Advertisements
Track Severe Weather on mobile